sensor_id;sensor_type;location;lat;lon;timestamp;P1;durP1;ratioP1;P2;durP2;ratioP2
59474;SDS011;45288;51.136;16.928;2022-07-22T00:01:29;9.47;;;8.23;;
59474;SDS011;45288;51.136;16.928;2022-07-22T00:03:55;10.15;;;7.88;;
59474;SDS011;45288;51.136;16.928;2022-07-22T00:06:20;8.10;;;7.30;;
59474;SDS011;45288;51.136;16.928;2022-07-22T00:08:46;8.50;;;7.27;;
59474;SDS011;45288;51.136;16.928;2022-07-22T00:11:12;7.73;;;6.93;;
59474;SDS011;45288;51.136;16.928;2022-07-22T00:13:37;7.55;;;6.75;;
59474;SDS011;45288;51.136;16.928;2022-07-22T00:16:04;9.07;;;6.97;;
59474;SDS011;45288;51.136;16.928;2022-07-22T00:18:29;8.20;;;6.82;;
59474;SDS011;45288;51.136;16.928;2022-07-22T00:20:55;7.93;;;7.13;;
59474;SDS011;45288;51.136;16.928;2022-07-22T00:23:21;9.45;;;6.75;;
59474;SDS011;45288;51.136;16.928;2022-07-22T00:25:47;7.87;;;6.90;;
59474;SDS011;45288;51.136;16.928;2022-07-22T00:28:12;7.77;;;6.87;;
59474;SDS011;45288;51.136;16.928;2022-07-22T00:30:38;8.00;;;6.70;;
59474;SDS011;45288;51.136;16.928;2022-07-22T00:33:04;8.20;;;6.63;;
59474;SDS011;45288;51.136;16.928;2022-07-22T00:35:29;10.07;;;7.37;;
59474;SDS011;45288;51.136;16.928;2022-07-22T00:37:55;9.23;;;7.70;;
59474;SDS011;45288;51.136;16.928;2022-07-22T00:40:21;8.63;;;7.10;;
59474;SDS011;45288;51.136;16.928;2022-07-22T00:42:46;9.10;;;7.10;;
59474;SDS011;45288;51.136;16.928;2022-07-22T00:45:13;9.13;;;7.50;;
59474;SDS011;45288;51.136;16.928;2022-07-22T00:47:38;9.23;;;7.33;;
59474;SDS011;45288;51.136;16.928;2022-07-22T00:50:05;10.93;;;7.95;;
59474;SDS011;45288;51.136;16.928;2022-07-22T00:52:32;10.43;;;7.57;;
59474;SDS011;45288;51.136;16.928;2022-07-22T00:54:58;8.63;;;7.63;;
59474;SDS011;45288;51.136;16.928;2022-07-22T00:57:25;11.95;;;8.50;;
59474;SDS011;45288;51.136;16.928;2022-07-22T00:59:50;12.10;;;8.00;;
59474;SDS011;45288;51.136;16.928;2022-07-22T01:02:17;14.33;;;7.97;;
59474;SDS011;45288;51.136;16.928;2022-07-22T01:04:42;10.43;;;7.57;;
59474;SDS011;45288;51.136;16.928;2022-07-22T01:07:08;13.27;;;7.90;;
59474;SDS011;45288;51.136;16.928;2022-07-22T01:09:34;11.52;;;8.23;;
59474;SDS011;45288;51.136;16.928;2022-07-22T01:12:00;9.23;;;8.03;;
59474;SDS011;45288;51.136;16.928;2022-07-22T01:14:26;10.00;;;7.80;;
59474;SDS011;45288;51.136;16.928;2022-07-22T01:16:51;8.60;;;7.60;;
59474;SDS011;45288;51.136;16.928;2022-07-22T01:19:17;9.98;;;7.90;;
59474;SDS011;45288;51.136;16.928;2022-07-22T01:21:43;9.17;;;7.80;;
59474;SDS011;45288;51.136;16.928;2022-07-22T01:24:08;8.82;;;7.63;;
59474;SDS011;45288;51.136;16.928;2022-07-22T01:26:34;10.30;;;8.15;;
59474;SDS011;45288;51.136;16.928;2022-07-22T01:29:00;10.68;;;8.30;;
59474;SDS011;45288;51.136;16.928;2022-07-22T01:31:26;11.65;;;9.50;;
59474;SDS011;45288;51.136;16.928;2022-07-22T01:33:53;12.52;;;10.10;;
59474;SDS011;45288;51.136;16.928;2022-07-22T01:36:20;12.68;;;9.68;;
59474;SDS011;45288;51.136;16.928;2022-07-22T01:38:46;10.63;;;9.53;;
59474;SDS011;45288;51.136;16.928;2022-07-22T01:41:12;12.00;;;10.10;;
59474;SDS011;45288;51.136;16.928;2022-07-22T01:43:38;12.82;;;11.50;;
59474;SDS011;45288;51.136;16.928;2022-07-22T01:46:04;12.75;;;11.32;;
59474;SDS011;45288;51.136;16.928;2022-07-22T01:48:32;13.75;;;11.77;;
59474;SDS011;45288;51.136;16.928;2022-07-22T01:50:58;13.53;;;11.57;;
59474;SDS011;45288;51.136;16.928;2022-07-22T01:53:25;14.13;;;11.68;;
59474;SDS011;45288;51.136;16.928;2022-07-22T01:55:51;14.02;;;11.73;;
59474;SDS011;45288;51.136;16.928;2022-07-22T01:58:18;12.60;;;10.83;;
59474;SDS011;45288;51.136;16.928;2022-07-22T02:00:46;13.32;;;10.98;;
59474;SDS011;45288;51.136;16.928;2022-07-22T02:03:12;16.17;;;11.80;;
59474;SDS011;45288;51.136;16.928;2022-07-22T02:05:38;13.73;;;11.82;;
59474;SDS011;45288;51.136;16.928;2022-07-22T02:08:14;14.68;;;11.90;;
59474;SDS011;45288;51.136;16.928;2022-07-22T02:10:59;15.45;;;11.80;;
59474;SDS011;45288;51.136;16.928;2022-07-22T02:13:24;12.23;;;10.83;;
59474;SDS011;45288;51.136;16.928;2022-07-22T02:15:50;12.50;;;10.38;;
59474;SDS011;45288;51.136;16.928;2022-07-22T02:18:16;11.40;;;9.80;;
59474;SDS011;45288;51.136;16.928;2022-07-22T02:20:43;11.45;;;9.85;;
59474;SDS011;45288;51.136;16.928;2022-07-22T02:23:09;12.82;;;10.00;;
59474;SDS011;45288;51.136;16.928;2022-07-22T02:25:37;12.88;;;9.75;;
59474;SDS011;45288;51.136;16.928;2022-07-22T02:28:03;18.08;;;14.10;;
59474;SDS011;45288;51.136;16.928;2022-07-22T02:30:29;14.93;;;12.30;;
59474;SDS011;45288;51.136;16.928;2022-07-22T02:32:56;13.95;;;10.88;;
59474;SDS011;45288;51.136;16.928;2022-07-22T02:35:22;13.60;;;9.93;;
59474;SDS011;45288;51.136;16.928;2022-07-22T02:37:48;14.52;;;10.00;;
59474;SDS011;45288;51.136;16.928;2022-07-22T02:40:14;15.00;;;9.50;;
59474;SDS011;45288;51.136;16.928;2022-07-22T02:42:41;12.50;;;9.20;;
59474;SDS011;45288;51.136;16.928;2022-07-22T02:45:07;12.57;;;8.80;;
59474;SDS011;45288;51.136;16.928;2022-07-22T02:47:33;10.20;;;9.18;;
59474;SDS011;45288;51.136;16.928;2022-07-22T02:49:59;12.77;;;9.50;;
59474;SDS011;45288;51.136;16.928;2022-07-22T02:52:26;10.15;;;9.10;;
59474;SDS011;45288;51.136;16.928;2022-07-22T02:54:52;12.20;;;9.03;;
59474;SDS011;45288;51.136;16.928;2022-07-22T02:57:17;11.90;;;9.98;;
59474;SDS011;45288;51.136;16.928;2022-07-22T02:59:46;11.45;;;9.52;;
59474;SDS011;45288;51.136;16.928;2022-07-22T03:02:12;15.67;;;10.10;;
59474;SDS011;45288;51.136;16.928;2022-07-22T03:04:38;12.40;;;10.20;;
59474;SDS011;45288;51.136;16.928;2022-07-22T03:07:06;13.40;;;10.02;;
59474;SDS011;45288;51.136;16.928;2022-07-22T03:09:33;11.88;;;10.55;;
59474;SDS011;45288;51.136;16.928;2022-07-22T03:11:58;14.50;;;10.82;;
59474;SDS011;45288;51.136;16.928;2022-07-22T03:14:24;15.23;;;11.00;;
59474;SDS011;45288;51.136;16.928;2022-07-22T03:16:50;13.68;;;10.73;;
59474;SDS011;45288;51.136;16.928;2022-07-22T03:19:15;11.83;;;10.47;;
59474;SDS011;45288;51.136;16.928;2022-07-22T03:21:46;13.38;;;10.15;;
59474;SDS011;45288;51.136;16.928;2022-07-22T03:24:11;15.30;;;11.33;;
59474;SDS011;45288;51.136;16.928;2022-07-22T03:26:37;12.55;;;10.43;;
59474;SDS011;45288;51.136;16.928;2022-07-22T03:29:05;15.70;;;11.10;;
59474;SDS011;45288;51.136;16.928;2022-07-22T03:31:31;14.98;;;10.88;;
59474;SDS011;45288;51.136;16.928;2022-07-22T03:33:58;12.77;;;11.13;;
59474;SDS011;45288;51.136;16.928;2022-07-22T03:36:28;16.58;;;11.40;;
59474;SDS011;45288;51.136;16.928;2022-07-22T03:38:55;14.00;;;11.20;;
59474;SDS011;45288;51.136;16.928;2022-07-22T03:41:21;12.48;;;11.10;;
59474;SDS011;45288;51.136;16.928;2022-07-22T03:43:47;13.03;;;11.03;;
59474;SDS011;45288;51.136;16.928;2022-07-22T03:46:13;14.30;;;11.25;;
59474;SDS011;45288;51.136;16.928;2022-07-22T03:48:39;14.13;;;11.10;;
59474;SDS011;45288;51.136;16.928;2022-07-22T03:51:05;17.17;;;11.67;;
59474;SDS011;45288;51.136;16.928;2022-07-22T03:53:31;14.57;;;11.93;;
59474;SDS011;45288;51.136;16.928;2022-07-22T03:55:58;14.52;;;11.48;;
59474;SDS011;45288;51.136;16.928;2022-07-22T03:58:24;12.80;;;11.45;;
59474;SDS011;45288;51.136;16.928;2022-07-22T04:00:52;13.57;;;11.75;;
59474;SDS011;45288;51.136;16.928;2022-07-22T04:03:18;16.60;;;12.15;;
59474;SDS011;45288;51.136;16.928;2022-07-22T04:06:02;17.10;;;12.73;;
59474;SDS011;45288;51.136;16.928;2022-07-22T04:08:38;14.95;;;12.25;;
59474;SDS011;45288;51.136;16.928;2022-07-22T04:11:04;16.30;;;13.00;;
59474;SDS011;45288;51.136;16.928;2022-07-22T04:13:30;18.55;;;12.25;;
59474;SDS011;45288;51.136;16.928;2022-07-22T04:15:57;14.00;;;11.93;;
59474;SDS011;45288;51.136;16.928;2022-07-22T04:18:23;14.50;;;11.90;;
59474;SDS011;45288;51.136;16.928;2022-07-22T04:20:49;14.82;;;11.77;;
59474;SDS011;45288;51.136;16.928;2022-07-22T04:23:23;15.32;;;12.07;;
59474;SDS011;45288;51.136;16.928;2022-07-22T04:25:58;13.73;;;11.97;;
59474;SDS011;45288;51.136;16.928;2022-07-22T04:28:24;13.60;;;11.43;;
59474;SDS011;45288;51.136;16.928;2022-07-22T04:30:49;14.23;;;12.07;;
59474;SDS011;45288;51.136;16.928;2022-07-22T04:33:15;14.30;;;11.98;;
59474;SDS011;45288;51.136;16.928;2022-07-22T04:35:41;13.20;;;11.80;;
59474;SDS011;45288;51.136;16.928;2022-07-22T04:38:12;14.63;;;12.80;;
59474;SDS011;45288;51.136;16.928;2022-07-22T04:40:41;15.80;;;13.52;;
59474;SDS011;45288;51.136;16.928;2022-07-22T04:43:06;15.83;;;14.13;;
59474;SDS011;45288;51.136;16.928;2022-07-22T04:45:32;15.60;;;14.00;;
59474;SDS011;45288;51.136;16.928;2022-07-22T04:47:58;17.10;;;14.25;;
59474;SDS011;45288;51.136;16.928;2022-07-22T04:50:23;15.90;;;13.53;;
59474;SDS011;45288;51.136;16.928;2022-07-22T04:52:55;16.80;;;14.23;;
59474;SDS011;45288;51.136;16.928;2022-07-22T04:55:22;18.35;;;14.27;;
59474;SDS011;45288;51.136;16.928;2022-07-22T04:57:47;16.47;;;13.63;;
59474;SDS011;45288;51.136;16.928;2022-07-22T05:00:13;14.52;;;13.05;;
59474;SDS011;45288;51.136;16.928;2022-07-22T05:02:48;15.48;;;12.60;;
59474;SDS011;45288;51.136;16.928;2022-07-22T05:05:13;14.10;;;12.10;;
59474;SDS011;45288;51.136;16.928;2022-07-22T05:07:39;13.57;;;11.90;;
59474;SDS011;45288;51.136;16.928;2022-07-22T05:10:06;13.90;;;12.30;;
59474;SDS011;45288;51.136;16.928;2022-07-22T05:12:32;14.30;;;12.40;;
59474;SDS011;45288;51.136;16.928;2022-07-22T05:14:58;13.30;;;11.68;;
59474;SDS011;45288;51.136;16.928;2022-07-22T05:17:24;14.67;;;11.50;;
59474;SDS011;45288;51.136;16.928;2022-07-22T05:20:03;13.00;;;11.55;;
59474;SDS011;45288;51.136;16.928;2022-07-22T05:22:29;12.77;;;10.93;;
59474;SDS011;45288;51.136;16.928;2022-07-22T05:24:56;13.18;;;11.13;;
59474;SDS011;45288;51.136;16.928;2022-07-22T05:27:22;11.88;;;10.60;;
59474;SDS011;45288;51.136;16.928;2022-07-22T05:29:48;13.53;;;10.80;;
59474;SDS011;45288;51.136;16.928;2022-07-22T05:32:14;12.98;;;10.93;;
59474;SDS011;45288;51.136;16.928;2022-07-22T05:34:40;12.85;;;11.55;;
59474;SDS011;45288;51.136;16.928;2022-07-22T05:37:06;12.57;;;11.27;;
59474;SDS011;45288;51.136;16.928;2022-07-22T05:39:31;11.83;;;10.63;;
59474;SDS011;45288;51.136;16.928;2022-07-22T05:41:57;13.00;;;11.43;;
59474;SDS011;45288;51.136;16.928;2022-07-22T05:44:23;12.80;;;10.97;;
59474;SDS011;45288;51.136;16.928;2022-07-22T05:46:49;13.18;;;10.98;;
59474;SDS011;45288;51.136;16.928;2022-07-22T05:49:15;14.32;;;10.50;;
59474;SDS011;45288;51.136;16.928;2022-07-22T05:51:52;12.10;;;10.77;;
59474;SDS011;45288;51.136;16.928;2022-07-22T05:54:18;12.50;;;11.25;;
59474;SDS011;45288;51.136;16.928;2022-07-22T05:56:44;13.77;;;10.80;;
59474;SDS011;45288;51.136;16.928;2022-07-22T05:59:10;11.15;;;10.05;;
59474;SDS011;45288;51.136;16.928;2022-07-22T06:01:35;13.43;;;10.45;;
59474;SDS011;45288;51.136;16.928;2022-07-22T06:04:13;11.18;;;10.02;;
59474;SDS011;45288;51.136;16.928;2022-07-22T06:06:39;11.63;;;10.43;;
59474;SDS011;45288;51.136;16.928;2022-07-22T06:09:05;12.60;;;11.00;;
59474;SDS011;45288;51.136;16.928;2022-07-22T06:11:31;12.75;;;11.05;;
59474;SDS011;45288;51.136;16.928;2022-07-22T06:13:56;13.73;;;11.47;;
59474;SDS011;45288;51.136;16.928;2022-07-22T06:16:23;13.20;;;11.52;;
59474;SDS011;45288;51.136;16.928;2022-07-22T06:18:53;13.45;;;11.93;;
59474;SDS011;45288;51.136;16.928;2022-07-22T06:21:18;13.75;;;11.50;;
59474;SDS011;45288;51.136;16.928;2022-07-22T06:23:44;14.37;;;11.97;;
59474;SDS011;45288;51.136;16.928;2022-07-22T06:26:10;14.27;;;11.82;;
59474;SDS011;45288;51.136;16.928;2022-07-22T06:28:36;12.27;;;10.98;;
59474;SDS011;45288;51.136;16.928;2022-07-22T06:31:04;13.10;;;11.73;;
59474;SDS011;45288;51.136;16.928;2022-07-22T06:33:29;13.30;;;11.98;;
59474;SDS011;45288;51.136;16.928;2022-07-22T06:35:56;14.02;;;11.88;;
59474;SDS011;45288;51.136;16.928;2022-07-22T06:38:22;13.90;;;11.80;;
59474;SDS011;45288;51.136;16.928;2022-07-22T06:41:07;13.40;;;12.10;;
59474;SDS011;45288;51.136;16.928;2022-07-22T06:43:55;14.88;;;12.75;;
59474;SDS011;45288;51.136;16.928;2022-07-22T06:46:50;15.40;;;12.50;;
59474;SDS011;45288;51.136;16.928;2022-07-22T06:49:18;14.38;;;12.82;;
59474;SDS011;45288;51.136;16.928;2022-07-22T06:51:44;13.83;;;12.43;;
59474;SDS011;45288;51.136;16.928;2022-07-22T06:54:10;16.67;;;13.70;;
59474;SDS011;45288;51.136;16.928;2022-07-22T06:56:36;16.08;;;13.95;;
59474;SDS011;45288;51.136;16.928;2022-07-22T06:59:02;14.57;;;13.07;;
59474;SDS011;45288;51.136;16.928;2022-07-22T07:01:28;14.93;;;13.27;;
59474;SDS011;45288;51.136;16.928;2022-07-22T07:03:59;13.90;;;12.50;;
59474;SDS011;45288;51.136;16.928;2022-07-22T07:06:24;14.40;;;13.00;;
59474;SDS011;45288;51.136;16.928;2022-07-22T07:09:01;14.00;;;12.60;;
59474;SDS011;45288;51.136;16.928;2022-07-22T07:11:27;13.75;;;12.30;;
59474;SDS011;45288;51.136;16.928;2022-07-22T07:13:53;12.93;;;11.57;;
59474;SDS011;45288;51.136;16.928;2022-07-22T07:16:18;13.60;;;12.20;;
59474;SDS011;45288;51.136;16.928;2022-07-22T07:18:44;15.23;;;12.07;;
59474;SDS011;45288;51.136;16.928;2022-07-22T07:21:10;13.65;;;11.68;;
59474;SDS011;45288;51.136;16.928;2022-07-22T07:23:36;13.00;;;11.70;;
59474;SDS011;45288;51.136;16.928;2022-07-22T07:26:02;12.85;;;11.55;;
59474;SDS011;45288;51.136;16.928;2022-07-22T07:28:28;13.10;;;11.70;;
59474;SDS011;45288;51.136;16.928;2022-07-22T07:31:03;13.88;;;11.52;;
59474;SDS011;45288;51.136;16.928;2022-07-22T07:33:29;14.27;;;11.25;;
59474;SDS011;45288;51.136;16.928;2022-07-22T07:35:57;14.57;;;11.38;;
59474;SDS011;45288;51.136;16.928;2022-07-22T07:38:34;13.15;;;11.52;;
59474;SDS011;45288;51.136;16.928;2022-07-22T07:41:03;12.27;;;11.17;;
59474;SDS011;45288;51.136;16.928;2022-07-22T07:43:29;14.85;;;11.70;;
59474;SDS011;45288;51.136;16.928;2022-07-22T07:45:55;12.60;;;11.30;;
59474;SDS011;45288;51.136;16.928;2022-07-22T07:48:21;13.10;;;11.50;;
59474;SDS011;45288;51.136;16.928;2022-07-22T07:50:46;16.33;;;12.00;;
59474;SDS011;45288;51.136;16.928;2022-07-22T07:53:15;13.43;;;12.02;;
59474;SDS011;45288;51.136;16.928;2022-07-22T07:55:42;13.10;;;11.60;;
59474;SDS011;45288;51.136;16.928;2022-07-22T07:58:08;13.18;;;11.63;;
59474;SDS011;45288;51.136;16.928;2022-07-22T08:00:34;12.43;;;11.13;;
59474;SDS011;45288;51.136;16.928;2022-07-22T08:03:01;12.80;;;11.52;;
59474;SDS011;45288;51.136;16.928;2022-07-22T08:05:29;12.30;;;10.60;;
59474;SDS011;45288;51.136;16.928;2022-07-22T08:07:56;13.63;;;11.80;;
59474;SDS011;45288;51.136;16.928;2022-07-22T08:10:22;12.30;;;10.82;;
59474;SDS011;45288;51.136;16.928;2022-07-22T08:12:58;11.70;;;10.60;;
59474;SDS011;45288;51.136;16.928;2022-07-22T08:15:45;11.65;;;10.52;;
59474;SDS011;45288;51.136;16.928;2022-07-22T08:18:20;12.77;;;11.23;;
59474;SDS011;45288;51.136;16.928;2022-07-22T08:20:46;12.75;;;11.05;;
59474;SDS011;45288;51.136;16.928;2022-07-22T08:23:12;12.25;;;10.95;;
59474;SDS011;45288;51.136;16.928;2022-07-22T08:25:41;12.37;;;11.00;;
59474;SDS011;45288;51.136;16.928;2022-07-22T08:28:07;12.02;;;10.82;;
59474;SDS011;45288;51.136;16.928;2022-07-22T08:30:34;13.83;;;11.00;;
59474;SDS011;45288;51.136;16.928;2022-07-22T08:32:59;12.23;;;10.93;;
59474;SDS011;45288;51.136;16.928;2022-07-22T08:35:25;11.90;;;10.70;;
59474;SDS011;45288;51.136;16.928;2022-07-22T08:37:51;12.07;;;10.73;;
59474;SDS011;45288;51.136;16.928;2022-07-22T08:40:17;13.13;;;11.82;;
59474;SDS011;45288;51.136;16.928;2022-07-22T08:42:44;12.93;;;11.52;;
59474;SDS011;45288;51.136;16.928;2022-07-22T08:45:10;13.48;;;12.07;;
59474;SDS011;45288;51.136;16.928;2022-07-22T08:47:38;13.68;;;12.38;;
59474;SDS011;45288;51.136;16.928;2022-07-22T08:50:24;14.65;;;11.70;;
59474;SDS011;45288;51.136;16.928;2022-07-22T08:53:03;13.48;;;12.05;;
59474;SDS011;45288;51.136;16.928;2022-07-22T08:55:31;14.50;;;11.45;;
59474;SDS011;45288;51.136;16.928;2022-07-22T08:57:57;11.85;;;10.50;;
59474;SDS011;45288;51.136;16.928;2022-07-22T09:00:22;11.43;;;10.33;;
59474;SDS011;45288;51.136;16.928;2022-07-22T09:02:49;11.57;;;9.85;;
59474;SDS011;45288;51.136;16.928;2022-07-22T09:05:15;10.30;;;9.30;;
59474;SDS011;45288;51.136;16.928;2022-07-22T09:07:42;11.68;;;9.88;;
59474;SDS011;45288;51.136;16.928;2022-07-22T09:10:14;11.48;;;9.82;;
59474;SDS011;45288;51.136;16.928;2022-07-22T09:12:59;11.18;;;9.75;;
59474;SDS011;45288;51.136;16.928;2022-07-22T09:15:46;10.85;;;9.82;;
59474;SDS011;45288;51.136;16.928;2022-07-22T09:18:48;10.65;;;9.65;;
59474;SDS011;45288;51.136;16.928;2022-07-22T09:21:43;10.38;;;9.38;;
59474;SDS011;45288;51.136;16.928;2022-07-22T09:24:34;11.65;;;10.25;;
59474;SDS011;45288;51.136;16.928;2022-07-22T09:27:27;11.88;;;9.95;;
59474;SDS011;45288;51.136;16.928;2022-07-22T09:30:25;10.43;;;9.32;;
59474;SDS011;45288;51.136;16.928;2022-07-22T09:33:05;11.35;;;10.25;;
59474;SDS011;45288;51.136;16.928;2022-07-22T09:35:40;10.57;;;9.57;;
59474;SDS011;45288;51.136;16.928;2022-07-22T09:38:08;10.55;;;9.45;;
59474;SDS011;45288;51.136;16.928;2022-07-22T09:40:38;10.75;;;9.70;;
59474;SDS011;45288;51.136;16.928;2022-07-22T09:43:07;11.57;;;9.52;;
59474;SDS011;45288;51.136;16.928;2022-07-22T09:45:43;10.85;;;9.85;;
59474;SDS011;45288;51.136;16.928;2022-07-22T09:48:09;11.27;;;10.18;;
59474;SDS011;45288;51.136;16.928;2022-07-22T09:50:47;11.18;;;10.02;;
59474;SDS011;45288;51.136;16.928;2022-07-22T09:53:27;11.13;;;10.02;;
59474;SDS011;45288;51.136;16.928;2022-07-22T09:56:01;11.02;;;9.85;;
59474;SDS011;45288;51.136;16.928;2022-07-22T09:58:27;10.57;;;9.50;;
59474;SDS011;45288;51.136;16.928;2022-07-22T10:00:54;10.60;;;9.60;;
59474;SDS011;45288;51.136;16.928;2022-07-22T10:03:32;11.20;;;10.15;;
59474;SDS011;45288;51.136;16.928;2022-07-22T10:06:00;10.90;;;9.70;;
59474;SDS011;45288;51.136;16.928;2022-07-22T10:08:26;9.80;;;8.80;;
59474;SDS011;45288;51.136;16.928;2022-07-22T10:10:52;8.98;;;8.00;;
59474;SDS011;45288;51.136;16.928;2022-07-22T10:13:19;9.45;;;8.45;;
59474;SDS011;45288;51.136;16.928;2022-07-22T10:15:45;9.73;;;8.82;;
59474;SDS011;45288;51.136;16.928;2022-07-22T10:18:16;9.48;;;8.48;;
59474;SDS011;45288;51.136;16.928;2022-07-22T10:20:44;8.95;;;8.05;;
59474;SDS011;45288;51.136;16.928;2022-07-22T10:23:12;10.47;;;7.80;;
59474;SDS011;45288;51.136;16.928;2022-07-22T10:25:48;8.07;;;7.37;;
59474;SDS011;45288;51.136;16.928;2022-07-22T10:28:27;8.52;;;7.70;;
59474;SDS011;45288;51.136;16.928;2022-07-22T10:30:54;7.72;;;7.03;;
59474;SDS011;45288;51.136;16.928;2022-07-22T10:33:32;7.90;;;7.18;;
59474;SDS011;45288;51.136;16.928;2022-07-22T10:36:01;8.05;;;7.35;;
59474;SDS011;45288;51.136;16.928;2022-07-22T10:38:28;8.00;;;7.30;;
59474;SDS011;45288;51.136;16.928;2022-07-22T10:43:27;7.80;;;7.00;;
59474;SDS011;45288;51.136;16.928;2022-07-22T10:45:53;7.30;;;6.60;;
59474;SDS011;45288;51.136;16.928;2022-07-22T10:48:21;8.02;;;7.22;;
59474;SDS011;45288;51.136;16.928;2022-07-22T10:50:51;7.53;;;6.82;;
59474;SDS011;45288;51.136;16.928;2022-07-22T11:00:59;8.00;;;7.30;;
59474;SDS011;45288;51.136;16.928;2022-07-22T11:03:27;8.25;;;7.47;;
59474;SDS011;45288;51.136;16.928;2022-07-22T11:05:54;7.63;;;6.90;;
59474;SDS011;45288;51.136;16.928;2022-07-22T11:08:21;7.63;;;6.93;;
59474;SDS011;45288;51.136;16.928;2022-07-22T11:10:48;8.05;;;7.10;;
59474;SDS011;45288;51.136;16.928;2022-07-22T11:21:15;7.80;;;7.00;;
59474;SDS011;45288;51.136;16.928;2022-07-22T11:23:41;8.10;;;7.30;;
59474;SDS011;45288;51.136;16.928;2022-07-22T11:26:07;7.53;;;6.67;;
59474;SDS011;45288;51.136;16.928;2022-07-22T11:28:43;7.50;;;6.70;;
59474;SDS011;45288;51.136;16.928;2022-07-22T11:31:10;8.75;;;6.82;;
59474;SDS011;45288;51.136;16.928;2022-07-22T11:33:36;7.30;;;6.60;;
59474;SDS011;45288;51.136;16.928;2022-07-22T11:36:06;6.97;;;6.38;;
59474;SDS011;45288;51.136;16.928;2022-07-22T11:38:45;8.27;;;6.90;;
59474;SDS011;45288;51.136;16.928;2022-07-22T11:41:11;7.72;;;6.40;;
59474;SDS011;45288;51.136;16.928;2022-07-22T11:46:05;7.60;;;6.85;;
59474;SDS011;45288;51.136;16.928;2022-07-22T11:48:31;7.10;;;6.43;;
59474;SDS011;45288;51.136;16.928;2022-07-22T11:51:03;7.40;;;6.70;;
59474;SDS011;45288;51.136;16.928;2022-07-22T11:53:28;9.10;;;6.70;;
59474;SDS011;45288;51.136;16.928;2022-07-22T11:55:58;7.53;;;6.83;;
59474;SDS011;45288;51.136;16.928;2022-07-22T11:58:33;8.00;;;7.20;;
59474;SDS011;45288;51.136;16.928;2022-07-22T12:00:59;7.23;;;6.57;;
59474;SDS011;45288;51.136;16.928;2022-07-22T12:03:25;7.38;;;6.68;;
59474;SDS011;45288;51.136;16.928;2022-07-22T12:05:51;7.32;;;6.57;;
59474;SDS011;45288;51.136;16.928;2022-07-22T12:08:17;6.70;;;6.10;;
59474;SDS011;45288;51.136;16.928;2022-07-22T12:10:42;7.38;;;6.68;;
59474;SDS011;45288;51.136;16.928;2022-07-22T12:13:10;7.30;;;6.60;;
59474;SDS011;45288;51.136;16.928;2022-07-22T12:15:36;6.82;;;6.22;;
59474;SDS011;45288;51.136;16.928;2022-07-22T12:18:18;7.68;;;6.47;;
59474;SDS011;45288;51.136;16.928;2022-07-22T12:20:45;9.63;;;6.60;;
59474;SDS011;45288;51.136;16.928;2022-07-22T12:23:11;6.97;;;6.38;;
59474;SDS011;45288;51.136;16.928;2022-07-22T12:25:53;7.43;;;6.72;;
59474;SDS011;45288;51.136;16.928;2022-07-22T12:28:19;7.13;;;6.50;;
59474;SDS011;45288;51.136;16.928;2022-07-22T12:30:45;7.47;;;6.73;;
59474;SDS011;45288;51.136;16.928;2022-07-22T12:33:17;7.50;;;6.82;;
59474;SDS011;45288;51.136;16.928;2022-07-22T12:35:44;8.15;;;6.75;;
59474;SDS011;45288;51.136;16.928;2022-07-22T12:38:10;7.13;;;6.47;;
59474;SDS011;45288;51.136;16.928;2022-07-22T12:40:36;7.28;;;6.57;;
59474;SDS011;45288;51.136;16.928;2022-07-22T12:43:03;8.23;;;6.88;;
59474;SDS011;45288;51.136;16.928;2022-07-22T12:45:30;7.57;;;6.82;;
59474;SDS011;45288;51.136;16.928;2022-07-22T12:47:57;7.68;;;6.88;;
59474;SDS011;45288;51.136;16.928;2022-07-22T12:50:31;8.05;;;7.35;;
59474;SDS011;45288;51.136;16.928;2022-07-22T12:52:58;7.72;;;6.97;;
59474;SDS011;45288;51.136;16.928;2022-07-22T12:55:24;8.15;;;7.35;;
59474;SDS011;45288;51.136;16.928;2022-07-22T12:57:50;8.00;;;7.30;;
59474;SDS011;45288;51.136;16.928;2022-07-22T13:00:23;7.73;;;7.13;;
59474;SDS011;45288;51.136;16.928;2022-07-22T13:02:49;8.07;;;7.18;;
59474;SDS011;45288;51.136;16.928;2022-07-22T13:05:15;8.80;;;7.63;;
59474;SDS011;45288;51.136;16.928;2022-07-22T13:07:41;8.90;;;7.43;;
59474;SDS011;45288;51.136;16.928;2022-07-22T13:10:07;9.02;;;7.18;;
59474;SDS011;45288;51.136;16.928;2022-07-22T13:12:33;9.48;;;7.63;;
59474;SDS011;45288;51.136;16.928;2022-07-22T13:14:58;8.23;;;7.43;;
59474;SDS011;45288;51.136;16.928;2022-07-22T13:17:24;8.13;;;7.33;;
59474;SDS011;45288;51.136;16.928;2022-07-22T13:19:50;9.77;;;7.20;;
59474;SDS011;45288;51.136;16.928;2022-07-22T13:22:15;7.43;;;6.82;;
59474;SDS011;45288;51.136;16.928;2022-07-22T13:24:41;9.35;;;6.70;;
59474;SDS011;45288;51.136;16.928;2022-07-22T13:27:07;8.37;;;7.60;;
59474;SDS011;45288;51.136;16.928;2022-07-22T13:29:32;7.87;;;7.13;;
59474;SDS011;45288;51.136;16.928;2022-07-22T13:31:58;8.05;;;7.20;;
59474;SDS011;45288;51.136;16.928;2022-07-22T13:34:24;7.82;;;7.03;;
59474;SDS011;45288;51.136;16.928;2022-07-22T13:36:49;7.85;;;7.10;;
59474;SDS011;45288;51.136;16.928;2022-07-22T13:39:15;7.90;;;7.10;;
59474;SDS011;45288;51.136;16.928;2022-07-22T13:41:41;8.05;;;7.22;;
59474;SDS011;45288;51.136;16.928;2022-07-22T13:44:07;8.03;;;7.20;;
59474;SDS011;45288;51.136;16.928;2022-07-22T13:46:36;8.20;;;7.30;;
59474;SDS011;45288;51.136;16.928;2022-07-22T13:49:02;7.85;;;7.05;;
59474;SDS011;45288;51.136;16.928;2022-07-22T13:51:28;7.47;;;6.88;;
59474;SDS011;45288;51.136;16.928;2022-07-22T13:53:53;8.20;;;7.40;;
59474;SDS011;45288;51.136;16.928;2022-07-22T13:56:19;8.10;;;7.30;;
59474;SDS011;45288;51.136;16.928;2022-07-22T13:58:45;8.30;;;7.10;;
59474;SDS011;45288;51.136;16.928;2022-07-22T14:01:11;8.43;;;7.63;;
59474;SDS011;45288;51.136;16.928;2022-07-22T14:03:37;8.52;;;7.60;;
59474;SDS011;45288;51.136;16.928;2022-07-22T14:06:03;7.82;;;7.13;;
59474;SDS011;45288;51.136;16.928;2022-07-22T14:08:29;8.25;;;7.55;;
59474;SDS011;45288;51.136;16.928;2022-07-22T14:10:55;8.30;;;7.50;;
59474;SDS011;45288;51.136;16.928;2022-07-22T14:13:20;7.60;;;6.90;;
59474;SDS011;45288;51.136;16.928;2022-07-22T14:15:46;8.43;;;7.53;;
59474;SDS011;45288;51.136;16.928;2022-07-22T14:18:12;8.50;;;7.60;;
59474;SDS011;45288;51.136;16.928;2022-07-22T14:20:37;8.53;;;7.73;;
59474;SDS011;45288;51.136;16.928;2022-07-22T14:23:03;8.27;;;7.47;;
59474;SDS011;45288;51.136;16.928;2022-07-22T14:25:30;8.23;;;7.43;;
59474;SDS011;45288;51.136;16.928;2022-07-22T14:27:56;7.85;;;7.13;;
59474;SDS011;45288;51.136;16.928;2022-07-22T14:30:22;9.73;;;7.40;;
59474;SDS011;45288;51.136;16.928;2022-07-22T14:32:48;8.18;;;7.40;;
59474;SDS011;45288;51.136;16.928;2022-07-22T14:35:14;8.00;;;7.20;;
59474;SDS011;45288;51.136;16.928;2022-07-22T14:37:41;8.45;;;7.68;;
59474;SDS011;45288;51.136;16.928;2022-07-22T14:40:10;8.73;;;7.70;;
59474;SDS011;45288;51.136;16.928;2022-07-22T14:42:35;8.25;;;7.45;;
59474;SDS011;45288;51.136;16.928;2022-07-22T14:45:01;8.57;;;7.80;;
59474;SDS011;45288;51.136;16.928;2022-07-22T14:47:28;7.85;;;7.07;;